Time;durP1;ratioP1;P1;durP2;ratioP2;P2;SDS_P1;SDS_P2;PMS_P1;PMS_P2;Temp;Humidity;BMP_temperature;BMP_pressure;BME280_temperature;BME280_humidity;BME280_pressure;Samples;Min_cycle;Max_cycle;Signal;HPM_P1;HPM_P2
2022/03/02 00:01:43;;;;;;;34.00;16.40;;;;;;;5.81;71.70;102641.31;5051987;28;20044;-51
2022/03/02 00:04:11;;;;;;;29.77;17.37;;;;;;;5.81;72.76;102637.81;5052212;28;20045;-52
2022/03/02 00:06:39;;;;;;;29.50;17.48;;;;;;;5.74;72.99;102640.53;5052154;28;20103;-48
2022/03/02 00:09:07;;;;;;;28.40;16.15;;;;;;;5.74;72.32;102639.69;5050821;28;20458;-59
2022/03/02 00:11:35;;;;;;;30.77;17.33;;;;;;;5.75;72.60;102636.16;5052265;28;20045;-59
2022/03/02 00:14:05;;;;;;;29.33;17.88;;;;;;;5.68;72.33;102642.38;5048384;28;20711;-52
2022/03/02 00:16:34;;;;;;;29.00;15.90;;;;;;;5.70;72.29;102643.19;5049161;28;20424;-60
2022/03/02 00:19:08;;;;;;;30.98;16.85;;;;;;;5.68;72.03;102645.00;5052086;28;20106;-52
2022/03/02 00:21:36;;;;;;;27.38;15.70;;;;;;;5.66;72.34;102641.53;5052032;28;20041;-60
2022/03/02 00:24:04;;;;;;;29.80;16.05;;;;;;;5.62;71.90;102643.34;5050600;28;20049;-51
2022/03/02 00:26:33;;;;;;;27.98;16.25;;;;;;;5.60;72.84;102647.72;5052062;28;20057;-59
2022/03/02 00:29:02;;;;;;;32.40;16.33;;;;;;;5.54;72.47;102638.22;5051517;28;20051;-50
2022/03/02 00:31:31;;;;;;;27.95;16.27;;;;;;;5.56;72.75;102643.44;5051614;28;20045;-50
2022/03/02 00:33:59;;;;;;;27.90;17.15;;;;;;;5.58;72.80;102642.53;5050588;28;20102;-50
2022/03/02 00:36:28;;;;;;;29.73;16.60;;;;;;;5.59;72.48;102641.63;5055694;28;20045;-49
2022/03/02 00:38:56;;;;;;;30.83;16.98;;;;;;;5.58;72.24;102637.28;5055745;28;20063;-50
2022/03/02 00:41:24;;;;;;;29.65;15.60;;;;;;;5.59;72.13;102633.81;5055848;28;20103;-49
2022/03/02 00:43:53;;;;;;;29.17;15.88;;;;;;;5.59;72.90;102635.56;5055928;28;20239;-52
2022/03/02 00:46:26;;;;;;;30.60;16.80;;;;;;;5.56;72.36;102639.09;5055918;28;20048;-50
2022/03/02 00:48:55;;;;;;;31.60;17.85;;;;;;;5.57;72.58;102632.97;5055612;28;20037;-48
2022/03/02 00:51:23;;;;;;;27.67;15.60;;;;;;;5.57;72.48;102632.09;5055549;28;20075;-50
2022/03/02 00:53:54;;;;;;;29.95;16.63;;;;;;;5.59;72.98;102627.75;5055740;28;20045;-50
2022/03/02 00:56:22;;;;;;;26.45;15.15;;;;;;;5.59;73.55;102632.97;5055543;28;20435;-48
2022/03/02 00:58:50;;;;;;;31.67;16.45;;;;;;;5.56;73.62;102627.75;5055486;28;20480;-50
2022/03/02 01:01:18;;;;;;;28.75;17.70;;;;;;;5.53;74.02;102618.22;5055539;28;20061;-50
2022/03/02 01:03:46;;;;;;;27.10;16.98;;;;;;;5.48;74.17;102613.97;5055492;28;20075;-59
2022/03/02 01:06:14;;;;;;;27.63;16.40;;;;;;;5.47;73.60;102618.34;5055460;28;20078;-59
2022/03/02 01:08:42;;;;;;;31.70;17.13;;;;;;;5.44;73.70;102623.63;5055304;28;20037;-59
2022/03/02 01:11:12;;;;;;;30.77;17.30;;;;;;;5.40;73.48;102617.56;5055176;28;20090;-60
2022/03/02 01:13:40;;;;;;;27.02;15.57;;;;;;;5.39;73.71;102613.22;5055370;28;20055;-60
2022/03/02 01:16:08;;;;;;;33.17;18.73;;;;;;;5.42;73.26;102612.31;5055312;28;20099;-59
2022/03/02 01:18:36;;;;;;;28.70;17.00;;;;;;;5.36;74.59;102610.66;5054763;28;20045;-59
2022/03/02 01:21:04;;;;;;;30.15;18.23;;;;;;;5.31;74.02;102607.25;5055083;28;20048;-59
2022/03/02 01:23:34;;;;;;;35.28;17.08;;;;;;;5.32;73.71;102608.16;5054304;28;20500;-59
2022/03/02 01:26:02;;;;;;;30.10;17.95;;;;;;;5.26;73.92;102601.25;5054951;28;20153;-59
2022/03/02 01:28:31;;;;;;;29.85;16.40;;;;;;;5.25;74.39;102600.41;5053871;28;20045;-59
2022/03/02 01:30:59;;;;;;;28.83;16.90;;;;;;;5.27;75.06;102602.97;5054750;28;20063;-59
2022/03/02 01:33:28;;;;;;;28.98;16.70;;;;;;;5.26;74.07;102598.63;5055100;28;20373;-60
2022/03/02 01:35:56;;;;;;;28.45;17.10;;;;;;;5.25;74.08;102600.41;5055031;28;20049;-60
2022/03/02 01:38:24;;;;;;;28.40;17.60;;;;;;;5.21;74.67;102590.88;5054868;28;20053;-59
2022/03/02 01:40:53;;;;;;;29.90;17.33;;;;;;;5.16;75.05;102589.25;5055003;28;20507;-60
2022/03/02 01:43:21;;;;;;;31.58;16.92;;;;;;;5.18;74.85;102588.34;5054937;28;20051;-59
2022/03/02 01:45:50;;;;;;;29.58;18.05;;;;;;;5.14;75.57;102581.44;5053923;28;20045;-59
2022/03/02 01:48:18;;;;;;;30.58;18.60;;;;;;;5.13;76.07;102582.31;5052661;28;20045;-59
2022/03/02 01:50:46;;;;;;;30.27;16.88;;;;;;;5.13;76.17;102579.72;5054372;28;20484;-59
2022/03/02 01:53:14;;;;;;;31.52;17.92;;;;;;;5.12;75.92;102577.97;5054010;28;20530;-59
2022/03/02 01:55:43;;;;;;;29.35;17.60;;;;;;;5.13;76.58;102579.72;5054082;28;20053;-60
2022/03/02 01:58:11;;;;;;;32.10;18.25;;;;;;;5.08;76.60;102585.00;5052481;28;20048;-60
2022/03/02 02:00:39;;;;;;;30.00;16.95;;;;;;;5.05;77.19;102573.75;5054023;28;20041;-60
2022/03/02 02:03:09;;;;;;;30.08;17.25;;;;;;;5.02;76.35;102585.06;5054317;28;20041;-60
2022/03/02 02:05:37;;;;;;;30.55;16.33;;;;;;;5.00;76.85;102584.22;5054410;28;20045;-59
2022/03/02 02:08:05;;;;;;;32.28;18.40;;;;;;;4.99;76.47;102579.91;5054237;28;20057;-60
2022/03/02 02:10:34;;;;;;;29.45;16.60;;;;;;;4.98;77.43;102577.34;5053981;28;20076;-60
2022/03/02 02:13:02;;;;;;;27.40;15.98;;;;;;;4.96;77.36;102568.66;5054141;28;20053;-60
2022/03/02 02:15:30;;;;;;;33.13;17.88;;;;;;;4.90;77.78;102567.84;5054044;28;20446;-60
2022/03/02 02:17:59;;;;;;;28.65;16.60;;;;;;;4.84;78.26;102573.16;5053687;28;20119;-60
2022/03/02 02:20:29;;;;;;;29.85;16.85;;;;;;;4.86;77.99;102575.75;5054084;28;20426;-60
2022/03/02 02:22:59;;;;;;;30.40;17.05;;;;;;;4.82;77.43;102572.31;5053999;28;20107;-60
2022/03/02 02:25:27;;;;;;;29.48;16.05;;;;;;;4.80;77.48;102565.38;5053998;28;20431;-60
2022/03/02 02:27:55;;;;;;;32.30;19.05;;;;;;;4.76;77.17;102561.09;5054186;28;20056;-60
2022/03/02 02:30:24;;;;;;;27.80;16.90;;;;;;;4.81;77.43;102560.16;5053716;28;20087;-60
2022/03/02 02:32:52;;;;;;;28.08;16.60;;;;;;;4.83;77.97;102558.41;5053882;28;20052;-60
2022/03/02 02:35:21;;;;;;;29.33;16.08;;;;;;;4.81;77.64;102551.47;5053715;28;20064;-60
2022/03/02 02:37:49;;;;;;;27.95;16.38;;;;;;;4.82;77.08;102556.66;5053393;28;20049;-60
2022/03/02 02:40:20;;;;;;;31.02;16.80;;;;;;;4.84;77.16;102554.03;5053575;28;20091;-60
2022/03/02 02:42:49;;;;;;;26.95;16.05;;;;;;;4.79;77.36;102556.72;5053423;28;20049;-59
2022/03/02 02:45:20;;;;;;;28.55;17.23;;;;;;;4.82;77.30;102556.66;5052236;28;20458;-60
2022/03/02 02:47:49;;;;;;;30.98;17.10;;;;;;;4.79;77.69;102545.44;5053230;28;20053;-60
2022/03/02 02:50:19;;;;;;;31.15;17.30;;;;;;;4.77;77.41;102541.97;5053349;28;20401;-59
2022/03/02 02:52:48;;;;;;;30.42;16.73;;;;;;;4.76;77.39;102541.13;5053172;28;20545;-60
2022/03/02 02:55:19;;;;;;;30.60;16.60;;;;;;;4.80;77.24;102537.59;5053348;28;20518;-60
2022/03/02 02:57:48;;;;;;;30.90;16.38;;;;;;;4.72;77.40;102529.00;5052837;28;20504;-60
2022/03/02 03:00:18;;;;;;;33.67;16.77;;;;;;;4.69;77.45;102536.84;5052973;28;20053;-59
2022/03/02 03:02:47;;;;;;;30.67;16.42;;;;;;;4.63;77.41;102529.13;5052953;28;20432;-58
2022/03/02 03:05:19;;;;;;;30.98;16.23;;;;;;;4.65;77.51;102528.22;5052913;28;20092;-58
2022/03/02 03:07:48;;;;;;;30.15;16.92;;;;;;;4.61;77.55;102534.38;5051650;28;20063;-58
2022/03/02 03:10:19;;;;;;;28.40;16.33;;;;;;;4.60;77.55;102532.63;5052878;28;20044;-58
2022/03/02 03:12:47;;;;;;;31.40;17.83;;;;;;;4.60;77.65;102540.44;5052992;28;20049;-58
2022/03/02 03:15:17;;;;;;;29.52;16.70;;;;;;;4.54;77.78;102540.53;5052948;28;20120;-59
2022/03/02 03:17:47;;;;;;;31.08;18.42;;;;;;;4.52;77.89;102532.72;5052755;28;20048;-59
2022/03/02 03:20:17;;;;;;;29.55;16.58;;;;;;;4.59;78.04;102535.25;5052874;28;20491;-47
2022/03/02 03:22:46;;;;;;;28.08;17.10;;;;;;;4.62;77.88;102535.22;5052714;28;20049;-47
2022/03/02 03:25:15;;;;;;;27.48;16.73;;;;;;;4.56;78.25;102533.56;5052599;28;20103;-59
2022/03/02 03:27:45;;;;;;;31.20;17.23;;;;;;;4.57;78.17;102530.94;5052679;28;20430;-47
2022/03/02 03:30:16;;;;;;;29.85;16.73;;;;;;;4.55;77.76;102535.31;5052578;28;20072;-59
2022/03/02 03:32:44;;;;;;;28.60;16.67;;;;;;;4.57;77.63;102524.88;5052599;28;20060;-59
2022/03/02 03:35:14;;;;;;;30.38;17.15;;;;;;;4.59;77.65;102517.03;5052517;28;20384;-47
2022/03/02 03:37:43;;;;;;;29.85;16.95;;;;;;;4.63;77.74;102514.34;5052364;28;20404;-58
2022/03/02 03:40:14;;;;;;;31.17;16.00;;;;;;;4.67;77.87;102516.03;5052316;28;20052;-59
2022/03/02 03:42:44;;;;;;;33.22;17.10;;;;;;;4.63;78.27;102521.31;5052753;28;20514;-59
2022/03/02 03:45:14;;;;;;;32.20;16.63;;;;;;;4.64;78.35;102516.06;5052709;28;20048;-46
2022/03/02 03:47:43;;;;;;;25.95;14.95;;;;;;;4.57;78.71;102517.91;5052492;28;20155;-59
2022/03/02 03:50:11;;;;;;;29.63;16.50;;;;;;;4.52;79.20;102517.09;5052108;28;20450;-59
2022/03/02 03:52:40;;;;;;;29.35;15.77;;;;;;;4.54;78.88;102510.13;5052364;28;20495;-46
2022/03/02 03:55:10;;;;;;;29.58;16.05;;;;;;;4.56;78.82;102504.91;5052275;28;20119;-59
2022/03/02 03:57:38;;;;;;;27.92;15.18;;;;;;;4.53;78.40;102499.72;5051720;28;20091;-47
2022/03/02 04:00:11;;;;;;;34.00;16.20;;;;;;;4.49;79.34;102496.28;5051879;28;20045;-59
2022/03/02 04:02:38;;;;;;;;;;;;;;;4.52;79.06;102511.03;5052743;28;20510;-59
2022/03/02 04:05:07;;;;;;;31.42;16.27;;;;;;;4.51;79.50;102499.75;5052189;28;19925;-49
2022/03/02 04:07:38;;;;;;;30.63;16.58;;;;;;;4.50;79.32;102508.44;5052334;28;20354;-46
2022/03/02 04:10:07;;;;;;;27.13;15.98;;;;;;;4.47;79.37;102500.69;5051530;28;20041;-59
2022/03/02 04:12:36;;;;;;;31.05;15.52;;;;;;;4.40;79.62;102493.81;5052256;28;20037;-47
2022/03/02 04:15:05;;;;;;;29.95;15.70;;;;;;;4.39;79.86;102500.75;5052099;28;20052;-59
2022/03/02 04:17:35;;;;;;;29.48;16.65;;;;;;;4.38;80.14;102499.03;5052296;28;20084;-58
2022/03/02 04:20:04;;;;;;;32.60;16.65;;;;;;;4.40;80.22;102488.59;5052061;28;20116;-51
2022/03/02 04:22:33;;;;;;;26.52;15.85;;;;;;;4.37;80.53;102491.25;5052146;28;20056;-49
2022/03/02 04:25:01;;;;;;;32.42;16.45;;;;;;;4.34;80.78;102491.28;5052198;28;20052;-50
2022/03/02 04:27:29;;;;;;;30.17;16.15;;;;;;;4.34;81.28;102483.47;5051995;28;20049;-59
2022/03/02 04:29:57;;;;;;;31.65;16.60;;;;;;;4.29;81.61;102483.50;5051779;28;20106;-58
2022/03/02 04:32:25;;;;;;;33.55;17.85;;;;;;;4.30;81.98;102487.00;5052071;28;20396;-52
2022/03/02 04:34:55;;;;;;;30.02;16.67;;;;;;;4.22;81.94;102485.34;5051906;28;20052;-50
2022/03/02 04:37:23;;;;;;;31.83;16.90;;;;;;;4.16;82.61;102481.94;5051511;28;20556;-47
2022/03/02 04:39:51;;;;;;;31.27;16.80;;;;;;;4.12;82.70;102478.53;5051120;28;20072;-50
2022/03/02 04:42:19;;;;;;;29.70;17.17;;;;;;;4.11;82.52;102479.41;5051522;28;20107;-49
2022/03/02 04:44:47;;;;;;;34.03;17.88;;;;;;;4.09;83.20;102483.78;5051378;28;20180;-51
2022/03/02 04:47:15;;;;;;;32.70;17.88;;;;;;;4.05;83.31;102485.53;5052123;28;20392;-53
2022/03/02 04:49:44;;;;;;;29.30;15.85;;;;;;;4.04;83.78;102477.75;5051780;28;20056;-50
2022/03/02 04:52:13;;;;;;;32.60;17.48;;;;;;;4.04;83.54;102468.19;5051753;28;20056;-48
2022/03/02 04:57:27;;;;;;;29.45;16.75;;;;;;;4.02;83.82;102474.28;5051538;28;20435;-48
2022/03/02 04:59:55;;;;;;;29.35;16.77;;;;;;;3.98;83.71;102470.00;5051664;28;20056;-49
2022/03/02 05:02:23;;;;;;;30.45;18.05;;;;;;;3.91;84.17;102471.81;5052013;28;20053;-49
2022/03/02 05:04:52;;;;;;;30.50;17.23;;;;;;;3.94;84.15;102465.72;5051619;28;20045;-51
2022/03/02 05:07:22;;;;;;;31.63;18.05;;;;;;;3.89;84.33;102466.63;5051668;28;20049;-48
2022/03/02 05:09:50;;;;;;;27.70;17.17;;;;;;;3.87;84.76;102462.31;5051565;28;20526;-52
2022/03/02 05:12:18;;;;;;;28.02;16.75;;;;;;;3.78;85.52;102459.84;5051568;28;20075;-53
2022/03/02 05:14:46;;;;;;;29.65;16.05;;;;;;;3.76;85.66;102457.22;5051700;28;20049;-50
2022/03/02 05:17:14;;;;;;;31.65;17.05;;;;;;;3.73;85.66;102465.06;5051599;28;20049;-51
2022/03/02 05:19:42;;;;;;;32.08;16.73;;;;;;;3.72;85.87;102459.03;5051452;28;20041;-50
2022/03/02 05:22:11;;;;;;;31.42;16.88;;;;;;;3.72;86.06;102459.03;5054418;28;20045;-52
2022/03/02 05:24:40;;;;;;;32.15;17.20;;;;;;;3.72;86.24;102463.34;5055466;28;20402;-52
2022/03/02 05:27:08;;;;;;;30.60;16.98;;;;;;;3.69;86.44;102455.56;5055184;28;20071;-50
2022/03/02 05:29:37;;;;;;;30.13;16.48;;;;;;;3.66;86.66;102455.63;5054902;28;20123;-52
2022/03/02 05:32:06;;;;;;;30.08;17.38;;;;;;;3.64;87.03;102460.84;5054927;28;20041;-49
2022/03/02 05:34:35;;;;;;;28.42;17.33;;;;;;;3.64;86.88;102459.97;5053880;28;20132;-51
2022/03/02 05:37:03;;;;;;;29.50;17.33;;;;;;;3.62;87.03;102453.94;5054693;28;20399;-49
2022/03/02 05:39:31;;;;;;;33.22;17.30;;;;;;;3.64;87.13;102449.56;5054694;28;20056;-52
2022/03/02 05:42:01;;;;;;;31.27;17.52;;;;;;;3.60;87.32;102446.13;5054583;28;20041;-52
2022/03/02 05:44:29;;;;;;;30.77;15.80;;;;;;;3.57;87.30;102445.28;5055061;28;20049;-52
2022/03/02 05:46:57;;;;;;;30.95;17.05;;;;;;;3.53;87.48;102452.25;5054566;28;20047;-50
2022/03/02 05:49:25;;;;;;;28.40;16.60;;;;;;;3.49;87.78;102454.06;5054448;28;20454;-49
2022/03/02 05:51:53;;;;;;;29.20;16.27;;;;;;;3.43;87.79;102454.09;5052945;28;20091;-50
2022/03/02 05:54:22;;;;;;;33.33;16.88;;;;;;;3.41;87.52;102453.25;5054454;28;20044;-48
2022/03/02 05:56:50;;;;;;;31.50;16.42;;;;;;;3.37;87.95;102454.16;5054023;28;20057;-48
2022/03/02 05:59:19;;;;;;;35.70;17.15;;;;;;;3.37;87.99;102455.03;5053955;28;20049;-51
2022/03/02 06:01:47;;;;;;;33.92;18.10;;;;;;;3.34;88.12;102455.06;5053821;28;20511;-48
2022/03/02 06:04:16;;;;;;;32.67;17.40;;;;;;;3.27;88.15;102452.50;5054006;28;20111;-60
2022/03/02 06:06:44;;;;;;;32.42;18.65;;;;;;;3.24;88.40;102458.59;5054236;28;20440;-59
2022/03/02 06:09:12;;;;;;;32.38;17.00;;;;;;;3.21;88.42;102458.63;5054224;28;20041;-53
2022/03/02 06:11:43;;;;;;;30.30;17.58;;;;;;;3.16;88.65;102461.28;5054211;28;20601;-53
2022/03/02 06:14:11;;;;;;;31.17;17.67;;;;;;;3.11;89.01;102452.66;5054448;28;20439;-49
2022/03/02 06:16:44;;;;;;;32.83;17.73;;;;;;;3.09;88.85;102457.00;5054031;28;20045;-47
2022/03/02 06:19:14;;;;;;;32.97;17.38;;;;;;;3.08;88.79;102463.09;5054039;28;20095;-50
2022/03/02 06:21:44;;;;;;;33.88;17.23;;;;;;;2.95;89.13;102469.25;5053844;28;20037;-48
2022/03/02 06:24:14;;;;;;;31.85;18.20;;;;;;;2.94;89.36;102467.50;5054001;28;20048;-50
2022/03/02 06:26:43;;;;;;;35.15;18.58;;;;;;;2.92;89.66;102471.84;5053875;28;20056;-60
2022/03/02 06:29:11;;;;;;;30.95;17.13;;;;;;;2.85;89.73;102476.22;5052516;28;20049;-60
2022/03/02 06:31:40;;;;;;;34.05;18.27;;;;;;;2.79;90.68;102471.06;5053639;28;20044;-60
2022/03/02 06:34:09;;;;;;;32.65;17.42;;;;;;;2.80;90.47;102473.66;5053394;28;20061;-60
2022/03/02 06:36:38;;;;;;;31.73;17.95;;;;;;;2.77;90.33;102478.88;5053734;28;20056;-49
2022/03/02 06:39:06;;;;;;;30.20;17.38;;;;;;;2.78;91.31;102478.03;5053424;28;20041;-51
2022/03/02 06:41:46;;;;;;;33.65;17.65;;;;;;;2.76;91.88;102481.50;5053415;28;20055;-53
2022/03/02 06:44:23;;;;;;;30.90;16.95;;;;;;;2.72;92.05;102479.78;5053588;28;20103;-50
2022/03/02 06:46:58;;;;;;;32.42;17.23;;;;;;;2.71;92.46;102481.50;5053456;28;20049;-49
2022/03/02 06:49:34;;;;;;;29.67;16.90;;;;;;;2.67;92.91;102485.00;5053376;28;20099;-59
2022/03/02 06:52:06;;;;;;;31.40;17.30;;;;;;;2.65;93.10;102478.97;5051283;28;20040;-59
2022/03/02 06:54:34;;;;;;;30.75;17.27;;;;;;;2.65;93.23;102477.22;5052818;28;20064;-59
2022/03/02 06:57:04;;;;;;;32.85;16.38;;;;;;;2.63;92.57;102478.09;5052852;28;20107;-60
2022/03/02 06:59:39;;;;;;;31.20;18.25;;;;;;;2.57;92.80;102478.16;5052953;28;20067;-59
2022/03/02 07:02:08;;;;;;;31.25;17.73;;;;;;;2.59;92.21;102485.06;5051332;28;20507;-59
2022/03/02 07:04:42;;;;;;;31.95;18.25;;;;;;;2.60;92.22;102478.97;5053248;28;20049;-59
2022/03/02 07:07:11;;;;;;;34.65;19.00;;;;;;;2.61;92.47;102485.91;5053047;28;20248;-60
2022/03/02 07:09:40;;;;;;;32.97;17.48;;;;;;;2.61;92.36;102482.47;5052794;28;20462;-59
2022/03/02 07:12:10;;;;;;;33.38;18.00;;;;;;;2.64;92.28;102485.88;5052830;28;20064;-59
2022/03/02 07:14:40;;;;;;;30.63;17.20;;;;;;;2.68;92.25;102482.38;5052858;28;20044;-59
2022/03/02 07:17:08;;;;;;;33.50;18.30;;;;;;;2.70;91.55;102482.41;5052788;28;20500;-59
2022/03/02 07:19:36;;;;;;;32.70;18.20;;;;;;;2.73;91.75;102489.28;5052796;28;20053;-59
2022/03/02 07:22:06;;;;;;;34.17;18.45;;;;;;;2.76;91.91;102486.69;5052562;28;20048;-60
2022/03/02 07:24:41;;;;;;;31.13;17.00;;;;;;;2.79;91.60;102487.53;5052744;28;20512;-59
2022/03/02 07:27:09;;;;;;;31.75;18.42;;;;;;;2.92;90.81;102484.84;5052774;28;20056;-60
2022/03/02 07:29:37;;;;;;;34.38;17.15;;;;;;;3.08;90.38;102478.69;5052274;28;20049;-59
2022/03/02 07:32:08;;;;;;;33.53;16.85;;;;;;;3.22;89.11;102476.81;5048516;28;20064;-59
2022/03/02 07:34:43;;;;;;;35.03;17.83;;;;;;;3.32;88.64;102482.81;5049500;28;20045;-59
2022/03/02 07:37:12;;;;;;;35.67;18.63;;;;;;;3.51;87.96;102480.91;5052514;28;20053;-60
2022/03/02 07:39:43;;;;;;;32.22;17.92;;;;;;;3.76;84.82;102487.59;5052528;28;20090;-60
2022/03/02 07:42:11;;;;;;;30.88;16.52;;;;;;;3.96;84.50;102482.19;5052106;28;20056;-60
2022/03/02 07:44:41;;;;;;;37.17;19.02;;;;;;;4.04;83.64;102482.97;5051705;28;20492;-59
2022/03/02 07:47:10;;;;;;;40.70;21.75;;;;;;;4.33;83.59;102484.34;5052527;28;20041;-60
2022/03/02 07:49:39;;;;;;;39.70;19.63;;;;;;;4.51;81.07;102484.13;5052283;28;20085;-60
2022/03/02 07:52:10;;;;;;;34.00;19.38;;;;;;;4.62;79.46;102485.69;5052361;28;20090;-60
2022/03/02 07:54:41;;;;;;;36.38;19.83;;;;;;;4.85;79.11;102483.66;5052292;28;20102;-60
2022/03/02 07:57:11;;;;;;;31.95;18.25;;;;;;;5.29;77.03;102483.81;5052133;28;20061;-59
2022/03/02 07:59:42;;;;;;;34.00;16.88;;;;;;;5.12;76.42;102486.69;5052209;28;20049;-60
2022/03/02 08:02:12;;;;;;;31.05;18.73;;;;;;;5.34;76.36;102483.72;5052039;28;20053;-60
2022/03/02 08:04:42;;;;;;;32.33;17.48;;;;;;;5.44;74.00;102477.47;5052319;28;20044;-60
2022/03/02 08:07:11;;;;;;;30.92;17.27;;;;;;;5.59;72.90;102476.34;5050771;28;20056;-60
2022/03/02 08:09:42;;;;;;;31.35;17.40;;;;;;;5.99;71.74;102472.16;5052225;28;20128;-60
2022/03/02 08:12:11;;;;;;;29.73;16.95;;;;;;;6.34;70.59;102467.91;5052045;28;20045;-52
2022/03/02 08:14:40;;;;;;;28.35;16.80;;;;;;;6.73;68.94;102465.31;5052058;28;20134;-60
2022/03/02 08:17:08;;;;;;;31.00;17.70;;;;;;;6.70;69.53;102462.78;5052318;28;20045;-60
2022/03/02 08:19:37;;;;;;;29.35;16.73;;;;;;;6.77;65.42;102469.59;5051874;28;20041;-53
2022/03/02 08:22:11;;;;;;;30.13;16.65;;;;;;;6.88;66.46;102466.72;5051723;28;20059;-49
2022/03/02 08:24:45;;;;;;;30.63;16.05;;;;;;;6.79;65.39;102469.53;5052253;28;20045;-49
2022/03/02 08:27:14;;;;;;;30.98;17.40;;;;;;;7.17;66.51;102475.63;5052000;28;20044;-53
2022/03/02 08:29:51;;;;;;;30.63;17.98;;;;;;;7.07;64.66;102475.84;5051809;28;20510;-60
2022/03/02 08:32:20;;;;;;;34.58;19.23;;;;;;;7.33;64.43;102469.09;5051610;28;20040;-52
2022/03/02 08:34:50;;;;;;;31.77;18.42;;;;;;;7.61;61.83;102469.25;5051871;28;20072;-60
2022/03/02 08:37:18;;;;;;;34.05;18.50;;;;;;;7.63;59.90;102469.19;5051796;28;20099;-48
2022/03/02 08:39:49;;;;;;;29.50;17.70;;;;;;;7.65;60.05;102469.16;5051863;28;20539;-48
2022/03/02 08:42:17;;;;;;;33.65;18.20;;;;;;;7.87;60.49;102469.44;5051804;28;20064;-48
2022/03/02 08:44:46;;;;;;;33.88;19.10;;;;;;;8.00;58.77;102462.94;5051786;28;20439;-61
2022/03/02 08:47:15;;;;;;;28.88;16.50;;;;;;;8.02;59.03;102466.38;5051748;28;20500;-47
2022/03/02 08:49:45;;;;;;;29.25;17.30;;;;;;;8.11;60.77;102462.63;5051669;28;20049;-60
2022/03/02 08:52:14;;;;;;;27.45;15.80;;;;;;;8.52;60.36;102465.84;5051420;28;20056;-48
2022/03/02 08:54:46;;;;;;;28.27;16.77;;;;;;;8.72;58.59;102469.59;5051520;28;20056;-59
2022/03/02 08:57:16;;;;;;;32.50;18.40;;;;;;;8.51;57.74;102464.09;5054592;28;20052;-60
2022/03/02 08:59:46;;;;;;;28.55;17.20;;;;;;;8.98;57.86;102460.88;5055529;28;20104;-60
2022/03/02 09:02:19;;;;;;;27.13;15.25;;;;;;;9.13;56.46;102457.75;5055343;28;20045;-52
2022/03/02 09:04:48;;;;;;;27.63;17.70;;;;;;;9.28;56.36;102459.00;5055347;28;20051;-49
2022/03/02 09:07:18;;;;;;;28.45;16.65;;;;;;;9.29;55.95;102462.50;5055421;28;20053;-50
2022/03/02 09:09:47;;;;;;;27.30;14.70;;;;;;;9.53;56.11;102455.53;5055212;28;20470;-48
2022/03/02 09:12:17;;;;;;;27.80;15.82;;;;;;;9.78;56.96;102446.78;5053845;28;20048;-58
2022/03/02 09:14:47;;;;;;;27.13;16.17;;;;;;;9.58;53.79;102443.06;5055449;28;20052;-59
2022/03/02 09:17:17;;;;;;;29.52;17.17;;;;;;;9.56;53.52;102441.44;5055151;28;20120;-50
2022/03/02 09:19:47;;;;;;;28.10;16.85;;;;;;;10.01;54.13;102451.19;5054918;28;20045;-47
2022/03/02 09:22:23;;;;;;;25.90;15.35;;;;;;;10.03;54.22;102451.13;5054854;28;20060;-47
2022/03/02 09:24:52;;;;;;;24.30;15.57;;;;;;;10.13;52.60;102436.75;5054902;28;20041;-60
2022/03/02 09:27:26;;;;;;;28.55;17.08;;;;;;;9.84;51.32;102435.19;5054888;28;20111;-46
2022/03/02 09:29:57;;;;;;;25.92;15.70;;;;;;;9.82;51.14;102446.59;5055200;28;20499;-47
2022/03/02 09:32:27;;;;;;;22.70;14.55;;;;;;;9.90;49.48;102442.84;5054788;28;20048;-59
2022/03/02 09:34:57;;;;;;;24.17;15.70;;;;;;;10.20;51.11;102435.59;5054807;28;20055;-48
2022/03/02 09:37:27;;;;;;;26.63;16.15;;;;;;;10.39;49.47;102434.88;5054815;28;20071;-47
2022/03/02 09:39:59;;;;;;;28.95;16.40;;;;;;;10.47;49.43;102430.19;5054604;28;20122;-59
2022/03/02 09:42:32;;;;;;;25.50;16.60;;;;;;;10.70;50.12;102434.53;5054682;28;20049;-47
2022/03/02 09:45:03;;;;;;;29.23;16.33;;;;;;;10.59;48.72;102431.47;5054625;28;20048;-59
2022/03/02 09:47:43;;;;;;;27.25;16.33;;;;;;;10.59;48.89;102431.47;5054792;28;20037;-46
2022/03/02 09:50:14;;;;;;;27.30;15.80;;;;;;;10.81;48.22;102419.16;5054252;28;20504;-60
2022/03/02 09:52:45;;;;;;;23.27;15.43;;;;;;;11.02;47.90;102418.34;5054286;28;20532;-60
2022/03/02 09:55:16;;;;;;;26.90;16.98;;;;;;;10.98;48.47;102415.81;5054386;28;20048;-47
2022/03/02 09:57:48;;;;;;;24.13;15.82;;;;;;;11.28;47.11;102420.72;5054184;28;20060;-60
2022/03/02 10:00:19;;;;;;;26.52;16.73;;;;;;;11.22;46.74;102421.00;5054341;28;20123;-48
2022/03/02 10:02:50;;;;;;;21.98;13.50;;;;;;;11.44;46.22;102417.44;5054232;28;20049;-48
2022/03/02 10:05:22;;;;;;;25.60;16.50;;;;;;;11.74;46.21;102423.13;5054484;28;20045;-48
2022/03/02 10:07:56;;;;;;;20.67;12.90;;;;;;;11.71;42.14;102415.34;5053354;28;20423;-50
2022/03/02 10:10:26;;;;;;;21.83;13.13;;;;;;;11.90;42.43;102414.50;5052866;28;20122;-47
2022/03/02 10:12:59;;;;;;;23.35;14.07;;;;;;;12.13;44.31;102421.38;5053939;28;20057;-60
2022/03/02 10:15:28;;;;;;;22.42;13.27;;;;;;;12.12;42.42;102415.25;5054129;28;20053;-47
2022/03/02 10:18:05;;;;;;;21.85;13.85;;;;;;;12.27;42.64;102415.44;5054301;28;20470;-49
2022/03/02 10:20:36;;;;;;;21.08;12.90;;;;;;;12.21;41.76;102418.38;5053961;28;20068;-48
2022/03/02 10:23:29;;;;;;;20.63;12.52;;;;;;;12.59;41.20;102416.53;5053765;28;20119;-61
2022/03/02 10:26:19;;;;;;;22.27;12.82;;;;;;;12.88;41.14;102418.69;5053863;28;20048;-48
2022/03/02 10:28:56;;;;;;;23.25;13.60;;;;;;;12.61;40.99;102419.09;5052162;28;20067;-49
2022/03/02 10:31:44;;;;;;;23.73;13.85;;;;;;;12.54;41.10;102420.34;5053681;28;20061;-60
2022/03/02 10:34:36;;;;;;;19.50;12.85;;;;;;;12.98;40.16;102419.94;5054108;28;20045;-48
2022/03/02 10:37:24;;;;;;;21.87;14.73;;;;;;;13.19;40.09;102413.53;5053748;28;20048;-60
2022/03/02 10:39:57;;;;;;;21.65;13.82;;;;;;;13.33;40.12;102415.50;5053817;28;20057;-60
2022/03/02 10:42:29;;;;;;;21.05;13.77;;;;;;;13.34;39.27;102411.91;5053567;28;20155;-61
2022/03/02 10:45:21;;;;;;;24.52;13.68;;;;;;;13.46;38.71;102410.44;5053504;28;20049;-60
2022/03/02 10:47:56;;;;;;;25.05;14.30;;;;;;;13.66;39.00;102404.09;5053546;28;20041;-60
2022/03/02 10:50:27;;;;;;;21.50;13.02;;;;;;;13.83;37.96;102405.81;5053354;28;20045;-50
2022/03/02 10:52:57;;;;;;;20.50;14.27;;;;;;;14.26;38.12;102399.97;5053169;28;20741;-51
2022/03/02 10:55:26;;;;;;;22.20;14.25;;;;;;;14.09;37.09;102397.41;5053338;28;20460;-52
2022/03/02 10:57:55;;;;;;;21.38;13.57;;;;;;;14.06;37.28;102401.09;5052979;28;20496;-50
2022/03/02 11:00:25;;;;;;;22.40;14.18;;;;;;;14.18;38.63;102395.09;5053154;28;20052;-60
2022/03/02 11:02:57;;;;;;;21.92;14.65;;;;;;;14.57;38.36;102402.66;5053290;28;20563;-52
2022/03/02 11:05:28;;;;;;;20.92;14.18;;;;;;;14.76;37.42;102397.19;5051736;28;20136;-50
2022/03/02 11:07:57;;;;;;;22.35;14.15;;;;;;;14.44;37.39;102397.22;5053121;28;20617;-52
2022/03/02 11:10:33;;;;;;;24.25;15.00;;;;;;;14.60;37.01;102394.53;5053090;28;20049;-52
2022/03/02 11:13:05;;;;;;;20.77;12.93;;;;;;;14.61;35.75;102385.66;5053080;28;20111;-51
2022/03/02 11:15:47;;;;;;;19.70;13.13;;;;;;;14.71;35.58;102381.56;5053384;28;20534;-51
2022/03/02 11:18:17;;;;;;;19.15;12.45;;;;;;;14.87;36.44;102381.53;5053049;28;20539;-51
2022/03/02 11:21:01;;;;;;;21.50;13.75;;;;;;;15.11;34.62;102381.88;5052872;28;20052;-51
2022/03/02 11:23:34;;;;;;;20.15;13.43;;;;;;;15.04;34.99;102376.06;5052919;28;20072;-52
2022/03/02 11:26:08;;;;;;;20.25;13.50;;;;;;;15.38;34.64;102367.88;5052602;28;20041;-51
2022/03/02 11:28:36;;;;;;;19.50;12.68;;;;;;;15.62;33.71;102375.25;5052985;28;20083;-60
2022/03/02 11:31:08;;;;;;;21.08;13.10;;;;;;;15.49;33.57;102362.75;5052490;28;20504;-60
2022/03/02 11:33:36;;;;;;;20.00;13.20;;;;;;;15.99;33.77;102365.88;5052785;28;20057;-60